createdAt,value
2018-09-19T00:01:54.816Z,91.88
2018-09-19T00:04:22.865Z,91.39
2018-09-19T00:06:50.869Z,92.91
2018-09-19T00:09:18.918Z,93.16
2018-09-19T00:11:47.024Z,93.34
2018-09-19T00:14:15.112Z,93.94
2018-09-19T00:16:43.176Z,93.56
2018-09-19T00:19:11.160Z,92.52
2018-09-19T00:21:39.317Z,93.76
2018-09-19T00:24:07.390Z,92.61
2018-09-19T00:26:35.440Z,92.59
2018-09-19T00:29:03.432Z,93.33
2018-09-19T00:31:31.572Z,92.54
2018-09-19T00:33:59.560Z,92.85
2018-09-19T00:36:27.565Z,90.24
2018-09-19T00:38:55.633Z,91.95
2018-09-19T00:41:23.644Z,93.11
2018-09-19T00:43:51.874Z,92.69
2018-09-19T00:46:20.405Z,92.56
2018-09-19T00:48:48.524Z,92.15
2018-09-19T00:51:16.582Z,92.65
2018-09-19T00:53:44.835Z,92.24
2018-09-19T00:56:12.880Z,92.17
2018-09-19T00:58:40.881Z,92.35
2018-09-19T01:01:09.085Z,93.13
2018-09-19T01:03:37.186Z,93.09
2018-09-19T01:06:05.249Z,93.69
2018-09-19T01:08:33.268Z,93.54
2018-09-19T01:11:01.358Z,93.25
2018-09-19T01:13:29.388Z,93.15
2018-09-19T01:15:57.514Z,93.62
2018-09-19T01:18:25.793Z,93.93
2018-09-19T01:20:53.832Z,93.22
2018-09-19T01:23:21.905Z,93.64
2018-09-19T01:25:50.068Z,93.17
2018-09-19T01:28:18.154Z,93.59
2018-09-19T01:30:46.272Z,93.29
2018-09-19T01:33:14.739Z,94.07
2018-09-19T01:35:42.793Z,94.19
2018-09-19T01:38:10.832Z,94.38
2018-09-19T01:40:38.999Z,94.13
2018-09-19T01:43:07.163Z,94.68
2018-09-19T01:45:35.197Z,95.27
2018-09-19T01:48:03.276Z,94.10
2018-09-19T01:50:31.303Z,95.41
2018-09-19T01:52:59.418Z,95.67
2018-09-19T01:55:27.599Z,95.72
2018-09-19T01:57:55.631Z,95.96
2018-09-19T02:00:23.754Z,97.02
2018-09-19T02:02:51.860Z,96.31
2018-09-19T02:05:19.934Z,96.69
2018-09-19T02:07:47.935Z,96.85
2018-09-19T02:10:16.121Z,97.29
2018-09-19T02:12:44.288Z,97.16
2018-09-19T02:15:12.293Z,96.89
2018-09-19T02:17:40.341Z,96.74
2018-09-19T02:20:08.481Z,98.20
2018-09-19T02:22:36.572Z,97.88
2018-09-19T02:25:04.640Z,97.31
2018-09-19T02:27:32.661Z,97.88
2018-09-19T02:30:00.757Z,98.06
2018-09-19T02:32:28.901Z,98.18
2018-09-19T02:34:56.933Z,97.92
2018-09-19T02:37:25.012Z,98.74
2018-09-19T02:39:53.099Z,98.07
2018-09-19T02:42:21.264Z,98.62
2018-09-19T02:44:49.310Z,98.95
2018-09-19T02:47:17.354Z,97.83
2018-09-19T02:49:45.509Z,98.39
2018-09-19T02:52:13.684Z,98.58
2018-09-19T02:54:41.738Z,98.66
2018-09-19T02:57:09.780Z,98.73
2018-09-19T02:59:37.759Z,99.29
2018-09-19T03:02:06.021Z,99.38
2018-09-19T03:04:34.071Z,98.16
2018-09-19T03:07:02.032Z,99.15
2018-09-19T03:09:30.081Z,98.52
2018-09-19T03:11:58.247Z,99.17
2018-09-19T03:14:26.376Z,98.76
2018-09-19T03:16:54.465Z,99.16
2018-09-19T03:19:22.511Z,98.13
2018-09-19T03:21:50.573Z,98.60
2018-09-19T03:24:18.765Z,98.67
2018-09-19T03:26:46.784Z,98.70
2018-09-19T03:29:14.838Z,98.67
2018-09-19T03:31:43.074Z,98.40
2018-09-19T03:34:11.133Z,98.25
2018-09-19T03:36:39.404Z,99.79
2018-09-19T03:39:09.768Z,100.00
2018-09-19T03:41:38.795Z,99.89
2018-09-19T03:44:08.181Z,99.63
2018-09-19T03:46:37.538Z,100.00
2018-09-19T03:49:06.378Z,100.00
2018-09-19T03:51:34.881Z,100.00
2018-09-19T03:54:03.394Z,99.72
2018-09-19T03:56:31.873Z,99.69
2018-09-19T03:59:00.278Z,99.17
2018-09-19T04:01:28.878Z,99.58
2018-09-19T04:03:57.332Z,99.28
2018-09-19T04:06:25.795Z,99.45
2018-09-19T04:08:54.162Z,99.09
2018-09-19T04:11:22.708Z,99.59
2018-09-19T04:13:51.171Z,99.08
2018-09-19T04:16:19.526Z,99.56
2018-09-19T04:18:48.072Z,99.44
2018-09-19T04:21:16.417Z,99.64
2018-09-19T04:23:44.726Z,99.35
2018-09-19T04:26:13.015Z,99.81
2018-09-19T04:28:41.991Z,99.33
2018-09-19T04:31:10.369Z,99.83
2018-09-19T04:33:38.767Z,100.00
2018-09-19T04:36:07.023Z,99.43
2018-09-19T04:38:35.377Z,98.75
2018-09-19T04:41:03.670Z,98.93
2018-09-19T04:43:32.133Z,99.53
2018-09-19T04:46:00.411Z,99.29
2018-09-19T04:48:28.816Z,99.03
2018-09-19T04:50:57.267Z,97.84
2018-09-19T04:53:25.666Z,98.15
2018-09-19T04:55:53.977Z,97.84
2018-09-19T04:58:22.369Z,98.97
2018-09-19T05:00:53.016Z,98.20
2018-09-19T05:03:22.696Z,94.20
2018-09-19T05:05:52.492Z,90.61
2018-09-19T05:08:21.478Z,85.79
2018-09-19T05:10:51.957Z,83.40
2018-09-19T05:13:22.191Z,82.45
2018-09-19T05:15:52.120Z,81.31
2018-09-19T05:18:20.470Z,82.22
2018-09-19T05:20:48.777Z,82.42
2018-09-19T05:23:17.122Z,81.81
2018-09-19T05:25:45.412Z,82.17
2018-09-19T05:28:13.764Z,83.79
2018-09-19T05:30:42.187Z,85.56
2018-09-19T05:33:10.644Z,83.78
2018-09-19T05:35:39.066Z,83.78
2018-09-19T05:38:07.852Z,83.82
2018-09-19T05:40:36.140Z,82.69
2018-09-19T05:43:04.597Z,80.71
2018-09-19T05:45:32.990Z,82.78
2018-09-19T05:48:01.496Z,82.92
2018-09-19T05:50:29.871Z,83.16
2018-09-19T05:52:58.297Z,84.03
2018-09-19T05:55:26.641Z,82.42
2018-09-19T05:57:55.171Z,81.35
2018-09-19T06:00:23.606Z,82.44
2018-09-19T06:02:52.005Z,83.50
2018-09-19T06:05:20.170Z,82.54
2018-09-19T06:07:48.869Z,81.86
2018-09-19T06:10:17.692Z,81.07
2018-09-19T06:12:47.467Z,81.27
2018-09-19T06:15:16.055Z,80.76
2018-09-19T06:17:44.643Z,79.83
2018-09-19T06:20:13.335Z,77.57
2018-09-19T06:22:42.759Z,76.11
2018-09-19T06:25:12.176Z,74.16
2018-09-19T06:27:40.970Z,73.46
2018-09-19T06:30:09.797Z,74.12
2018-09-19T06:32:38.540Z,73.70
2018-09-19T06:35:07.461Z,72.89
2018-09-19T06:37:35.988Z,71.39
2018-09-19T06:40:04.491Z,74.50
2018-09-19T06:42:33.154Z,71.38
2018-09-19T06:45:01.633Z,70.40
2018-09-19T06:47:30.102Z,71.00
2018-09-19T06:49:58.562Z,71.03
2018-09-19T06:52:27.132Z,67.54
2018-09-19T06:54:55.521Z,69.29
2018-09-19T06:57:23.860Z,68.91
2018-09-19T06:59:52.452Z,69.68
2018-09-19T07:02:21.067Z,70.40
2018-09-19T07:04:49.682Z,68.63
2018-09-19T07:07:18.195Z,67.27
2018-09-19T07:09:47.417Z,68.10
2018-09-19T07:12:16.004Z,67.30
2018-09-19T07:14:44.417Z,66.72
2018-09-19T07:17:12.828Z,66.81
2018-09-19T07:19:41.479Z,65.81
2018-09-19T07:22:10.232Z,65.07
2018-09-19T07:24:38.720Z,65.00
2018-09-19T07:27:07.770Z,64.18
2018-09-19T07:29:36.216Z,64.24
2018-09-19T07:32:04.805Z,63.22
2018-09-19T07:34:33.830Z,62.42
2018-09-19T07:37:02.217Z,62.02
2018-09-19T07:39:30.722Z,63.00
2018-09-19T07:41:59.332Z,61.88
2018-09-19T07:44:27.936Z,61.82
2018-09-19T07:46:56.409Z,61.59
2018-09-19T07:49:24.961Z,60.38
2018-09-19T07:51:53.936Z,61.36
2018-09-19T07:54:22.621Z,61.45
2018-09-19T07:56:51.179Z,60.06
2018-09-19T07:59:20.003Z,59.83
2018-09-19T08:01:48.551Z,58.29
2018-09-19T08:04:16.973Z,58.18
2018-09-19T08:06:45.867Z,58.41
2018-09-19T08:09:14.813Z,58.68
2018-09-19T08:11:43.359Z,57.66
2018-09-19T08:14:11.949Z,58.15
2018-09-19T08:16:40.437Z,54.83
2018-09-19T08:19:08.978Z,56.33
2018-09-19T08:21:37.440Z,55.23
2018-09-19T08:24:06.109Z,55.01
2018-09-19T08:26:35.082Z,55.29
2018-09-19T08:29:03.729Z,53.13
2018-09-19T08:31:32.151Z,53.01
2018-09-19T08:34:00.681Z,53.12
2018-09-19T08:36:29.455Z,52.79
2018-09-19T08:38:58.069Z,53.48
2018-09-19T08:41:26.549Z,50.72
2018-09-19T08:43:55.502Z,53.20
2018-09-19T08:46:23.967Z,52.50
2018-09-19T08:48:52.872Z,52.89
2018-09-19T08:51:21.699Z,50.75
2018-09-19T08:53:50.165Z,50.30
2018-09-19T08:56:19.092Z,49.36
2018-09-19T08:58:48.304Z,49.01
2018-09-19T09:01:16.818Z,49.30
2018-09-19T09:03:45.655Z,50.28
2018-09-19T09:06:14.097Z,49.24
2018-09-19T09:08:42.225Z,47.32
2018-09-19T09:11:10.470Z,48.97
2018-09-19T09:13:38.622Z,47.74
2018-09-19T09:16:07.072Z,48.44
2018-09-19T09:18:35.294Z,48.98
2018-09-19T09:21:03.499Z,47.49
2018-09-19T09:23:31.769Z,46.48
2018-09-19T09:26:00.298Z,47.32
2018-09-19T09:28:28.567Z,45.09
2018-09-19T09:30:56.902Z,46.87
2018-09-19T09:33:25.274Z,46.00
2018-09-19T09:35:53.487Z,43.42
2018-09-19T09:38:21.731Z,43.97
2018-09-19T09:40:49.819Z,44.24
2018-09-19T09:43:18.016Z,44.96
2018-09-19T09:45:46.136Z,44.02
2018-09-19T09:48:14.248Z,41.16
2018-09-19T09:50:42.550Z,41.80
2018-09-19T09:53:10.772Z,42.59
2018-09-19T09:55:38.930Z,40.12
2018-09-19T09:58:07.305Z,40.35
2018-09-19T10:00:41.666Z,40.03
2018-09-19T10:03:10.867Z,41.13
2018-09-19T10:05:39.149Z,40.36
2018-09-19T10:08:07.678Z,40.91
2018-09-19T10:10:36.263Z,39.40
2018-09-19T10:13:04.910Z,41.02
2018-09-19T10:15:33.460Z,38.68
2018-09-19T10:18:01.940Z,38.90
2018-09-19T10:20:30.544Z,36.84
2018-09-19T10:22:59.376Z,37.28
2018-09-19T10:25:28.034Z,37.06
2018-09-19T10:27:56.709Z,37.36
2018-09-19T10:30:25.413Z,38.40
2018-09-19T10:32:54.506Z,37.33
2018-09-19T10:35:23.059Z,36.26
2018-09-19T10:37:51.761Z,36.81
2018-09-19T10:40:20.520Z,35.32
2018-09-19T10:42:48.992Z,36.51
2018-09-19T10:45:17.512Z,36.82
2018-09-19T10:47:46.227Z,37.84
2018-09-19T10:50:14.751Z,38.35
2018-09-19T10:52:43.572Z,38.46
2018-09-19T10:55:12.099Z,38.09
2018-09-19T10:57:40.551Z,37.69
2018-09-19T11:00:08.977Z,37.68
2018-09-19T11:02:37.653Z,37.64
2018-09-19T11:05:06.030Z,37.01
2018-09-19T11:07:34.472Z,37.44
2018-09-19T11:10:02.926Z,36.76
2018-09-19T11:12:31.514Z,36.29
2018-09-19T11:15:00.045Z,37.15
2018-09-19T11:17:28.362Z,36.70
2018-09-19T11:19:56.906Z,34.98
2018-09-19T11:22:25.410Z,35.94
2018-09-19T11:24:53.849Z,35.88
2018-09-19T11:27:22.846Z,36.38
2018-09-19T11:29:51.827Z,36.25
2018-09-19T11:32:19.925Z,36.19
2018-09-19T11:34:48.118Z,36.69
2018-09-19T11:37:16.223Z,37.06
2018-09-19T11:39:44.308Z,36.47
2018-09-19T11:42:12.415Z,35.19
2018-09-19T11:44:41.645Z,37.76
2018-09-19T11:47:09.912Z,37.61
2018-09-19T11:49:37.987Z,38.01
2018-09-19T11:52:06.145Z,36.97
2018-09-19T11:54:34.465Z,38.04
2018-09-19T11:57:02.868Z,38.06
2018-09-19T11:59:30.991Z,36.92
2018-09-19T12:01:59.147Z,37.40
2018-09-19T12:04:27.385Z,36.49
2018-09-19T12:06:55.703Z,37.68
2018-09-19T12:09:23.976Z,37.63
2018-09-19T12:11:52.064Z,35.68
2018-09-19T12:14:20.201Z,36.48
2018-09-19T12:16:48.760Z,36.33
2018-09-19T12:19:17.535Z,36.15
2018-09-19T12:21:46.068Z,36.67
2018-09-19T12:24:14.681Z,37.13
2018-09-19T12:26:43.299Z,35.11
2018-09-19T12:29:11.879Z,36.94
2018-09-19T12:31:40.835Z,35.99
2018-09-19T12:34:09.523Z,36.94
2018-09-19T12:36:37.996Z,37.16
2018-09-19T12:39:08.766Z,35.52
2018-09-19T12:41:37.651Z,37.94
2018-09-19T12:44:06.583Z,36.79
2018-09-19T12:46:35.414Z,36.79
2018-09-19T12:49:04.144Z,37.51
2018-09-19T12:51:32.602Z,36.02
2018-09-19T12:54:01.343Z,35.33
2018-09-19T12:56:29.944Z,36.23
2018-09-19T12:58:58.932Z,36.06
2018-09-19T13:01:27.672Z,35.93
2018-09-19T13:03:57.244Z,37.08
2018-09-19T13:06:26.061Z,35.41
2018-09-19T13:08:54.807Z,36.69
2018-09-19T13:11:24.116Z,36.48
2018-09-19T13:13:53.650Z,36.33
2018-09-19T13:16:22.856Z,36.69
2018-09-19T13:18:51.610Z,37.37
2018-09-19T13:21:21.597Z,34.54
2018-09-19T13:23:50.455Z,32.99
2018-09-19T13:26:18.986Z,33.88
2018-09-19T13:28:48.026Z,34.40
2018-09-19T13:31:16.442Z,33.32
2018-09-19T13:33:45.280Z,32.65
2018-09-19T13:36:13.766Z,33.66
2018-09-19T13:38:42.560Z,34.77
2018-09-19T13:41:11.448Z,33.20
2018-09-19T13:43:40.461Z,33.41
2018-09-19T13:46:09.965Z,33.23
2018-09-19T13:48:39.712Z,34.79
2018-09-19T13:51:15.520Z,33.92
2018-09-19T13:53:44.765Z,35.32
2018-09-19T13:56:13.418Z,36.47
2018-09-19T13:58:42.015Z,35.00
2018-09-19T14:01:10.928Z,34.66
2018-09-19T14:03:40.558Z,34.52
2018-09-19T14:06:09.500Z,34.90
2018-09-19T14:08:38.517Z,35.58
2018-09-19T14:11:07.184Z,36.52
2018-09-19T14:13:36.658Z,35.67
2018-09-19T14:16:05.752Z,35.62
2018-09-19T14:18:34.635Z,35.83
2018-09-19T14:21:03.280Z,35.62
2018-09-19T14:23:31.869Z,36.52
2018-09-19T14:26:00.302Z,35.41
2018-09-19T14:28:28.930Z,36.14
2018-09-19T14:30:57.739Z,36.94
2018-09-19T14:33:26.414Z,36.66
2018-09-19T14:35:54.986Z,37.29
2018-09-19T14:38:23.839Z,37.03
2018-09-19T14:40:52.277Z,37.62
2018-09-19T14:43:20.952Z,37.69
2018-09-19T14:45:49.449Z,36.48
2018-09-19T14:48:17.962Z,36.91
2018-09-19T14:50:46.695Z,37.61
2018-09-19T14:53:15.347Z,38.05
2018-09-19T14:55:43.938Z,38.36
2018-09-19T14:58:12.679Z,38.70
2018-09-19T15:00:41.508Z,39.66
2018-09-19T15:03:10.059Z,40.20
2018-09-19T15:05:38.652Z,40.44
2018-09-19T15:08:07.196Z,41.21
2018-09-19T15:10:35.621Z,41.44
2018-09-19T15:13:04.216Z,40.26
2018-09-19T15:15:32.795Z,42.11
2018-09-19T15:18:01.395Z,41.38
2018-09-19T15:20:29.594Z,42.20
2018-09-19T15:22:57.686Z,43.28
2018-09-19T15:25:25.892Z,43.69
2018-09-19T15:27:54.104Z,42.75
2018-09-19T15:30:22.293Z,43.08
2018-09-19T15:32:50.528Z,45.27
2018-09-19T15:35:18.673Z,43.63
2018-09-19T15:37:46.929Z,45.77
2018-09-19T15:40:15.113Z,45.94
2018-09-19T15:42:43.301Z,46.33
2018-09-19T15:45:11.756Z,47.01
2018-09-19T15:47:39.789Z,46.94
2018-09-19T15:50:08.053Z,46.86
2018-09-19T15:52:36.307Z,48.03
2018-09-19T15:55:05.047Z,47.66
2018-09-19T15:57:33.608Z,48.20
2018-09-19T16:00:02.561Z,48.67
2018-09-19T16:02:30.972Z,50.78
2018-09-19T16:04:59.162Z,50.27
2018-09-19T16:07:27.551Z,50.70
2018-09-19T16:09:55.765Z,50.42
2018-09-19T16:12:25.567Z,50.65
2018-09-19T16:14:55.334Z,51.20
2018-09-19T16:17:25.577Z,51.91
2018-09-19T16:19:54.627Z,51.02
2018-09-19T16:22:23.047Z,52.04
2018-09-19T16:24:52.509Z,51.38
2018-09-19T16:27:21.605Z,53.00
2018-09-19T16:29:49.915Z,52.25
2018-09-19T16:32:18.090Z,52.40
2018-09-19T16:34:47.754Z,52.27
2018-09-19T16:37:18.074Z,52.78
2018-09-19T16:39:46.651Z,51.36
2018-09-19T16:42:16.642Z,52.70
2018-09-19T16:44:45.787Z,52.07
2018-09-19T16:47:14.978Z,52.38
2018-09-19T16:49:43.531Z,52.43
2018-09-19T16:52:13.543Z,51.49
2018-09-19T16:54:41.728Z,52.38
2018-09-19T16:57:10.111Z,52.59
2018-09-19T16:59:38.331Z,52.86
2018-09-19T17:02:06.734Z,52.38
2018-09-19T17:04:34.965Z,52.56
2018-09-19T17:07:03.416Z,51.91
2018-09-19T17:09:31.886Z,51.88
2018-09-19T17:12:00.141Z,51.67
2018-09-19T17:14:29.721Z,51.77
2018-09-19T17:16:57.948Z,51.51
2018-09-19T17:19:26.406Z,53.10
2018-09-19T17:21:54.562Z,53.47
2018-09-19T17:24:23.146Z,52.82
2018-09-19T17:26:51.364Z,53.97
2018-09-19T17:29:20.138Z,55.11
2018-09-19T17:31:49.549Z,55.84
2018-09-19T17:34:18.113Z,55.69
2018-09-19T17:36:46.862Z,56.31
2018-09-19T17:39:15.143Z,57.20
2018-09-19T17:41:43.497Z,57.12
2018-09-19T17:44:12.092Z,57.21
2018-09-19T17:46:40.689Z,57.20
2018-09-19T17:49:09.502Z,56.69
2018-09-19T17:51:37.868Z,57.09
2018-09-19T17:54:07.197Z,57.38
2018-09-19T17:56:35.782Z,58.08
2018-09-19T17:59:04.393Z,57.81
2018-09-19T18:01:32.624Z,57.41
2018-09-19T18:04:01.294Z,58.10
2018-09-19T18:06:29.561Z,56.71
2018-09-19T18:08:57.787Z,60.04
2018-09-19T18:11:26.323Z,59.64
2018-09-19T18:13:54.511Z,59.00
2018-09-19T18:16:22.962Z,59.08
2018-09-19T18:18:51.177Z,58.93
2018-09-19T18:21:19.331Z,59.22
2018-09-19T18:23:47.574Z,59.25
2018-09-19T18:26:15.795Z,57.95
2018-09-19T18:28:44.097Z,59.60
2018-09-19T18:31:12.291Z,60.39
2018-09-19T18:33:40.763Z,62.38
2018-09-19T18:36:09.164Z,63.39
2018-09-19T18:38:37.434Z,62.97
2018-09-19T18:41:05.721Z,63.86
2018-09-19T18:43:34.037Z,64.52
2018-09-19T18:46:02.229Z,64.99
2018-09-19T18:48:30.398Z,65.51
2018-09-19T18:50:58.572Z,65.14
2018-09-19T18:53:26.715Z,66.04
2018-09-19T18:55:54.831Z,67.17
2018-09-19T18:58:23.371Z,67.77
2018-09-19T19:00:51.470Z,68.07
2018-09-19T19:03:19.722Z,68.10
2018-09-19T19:05:47.825Z,67.85
2018-09-19T19:08:16.018Z,66.83
2018-09-19T19:10:44.176Z,68.04
2018-09-19T19:13:12.419Z,68.73
2018-09-19T19:15:40.672Z,68.39
2018-09-19T19:18:09.002Z,65.68
2018-09-19T19:20:37.399Z,66.14
2018-09-19T19:23:05.649Z,67.06
2018-09-19T19:25:33.900Z,65.64
2018-09-19T19:28:02.302Z,66.58
2018-09-19T19:30:30.585Z,65.66
2018-09-19T19:32:58.884Z,64.89
2018-09-19T19:35:27.319Z,63.29
2018-09-19T19:37:55.563Z,66.33
2018-09-19T19:40:23.831Z,67.51
2018-09-19T19:42:52.081Z,67.17
2018-09-19T19:45:20.469Z,67.13
2018-09-19T19:47:49.708Z,66.29
2018-09-19T19:50:17.916Z,67.92
2018-09-19T19:52:46.127Z,69.52
2018-09-19T19:55:14.463Z,69.29
2018-09-19T19:57:42.728Z,69.83
2018-09-19T20:00:11.073Z,70.00
2018-09-19T20:02:39.345Z,70.93
2018-09-19T20:05:07.850Z,71.02
2018-09-19T20:07:36.199Z,70.87
2018-09-19T20:10:04.598Z,71.68
2018-09-19T20:12:32.993Z,72.07
2018-09-19T20:15:01.255Z,72.40
2018-09-19T20:17:29.548Z,72.23
2018-09-19T20:19:57.886Z,72.19
2018-09-19T20:22:26.216Z,73.29
2018-09-19T20:24:54.844Z,74.00
2018-09-19T20:27:25.528Z,73.75
2018-09-19T20:29:56.252Z,73.52
2018-09-19T20:32:25.375Z,74.16
2018-09-19T20:34:56.278Z,73.80
2018-09-19T20:37:27.427Z,74.38
2018-09-19T20:39:56.545Z,75.25
2018-09-19T20:42:26.378Z,75.16
2018-09-19T20:44:55.575Z,76.03
2018-09-19T20:47:24.007Z,76.87
2018-09-19T20:49:52.272Z,76.17
2018-09-19T20:52:20.608Z,75.48
2018-09-19T20:54:50.365Z,75.65
2018-09-19T20:57:21.345Z,76.54
2018-09-19T20:59:49.935Z,76.57
2018-09-19T21:02:18.213Z,76.91
2018-09-19T21:07:44.688Z,76.96
2018-09-19T21:10:12.846Z,77.19
2018-09-19T21:12:41.016Z,77.74
2018-09-19T21:15:09.315Z,76.92
2018-09-19T21:17:37.517Z,77.50
2018-09-19T21:20:05.787Z,77.92
2018-09-19T21:22:34.197Z,78.22
2018-09-19T21:25:02.392Z,77.65
2018-09-19T21:27:30.621Z,78.51
2018-09-19T21:29:58.766Z,77.56
2018-09-19T21:32:26.974Z,78.01
2018-09-19T21:34:55.237Z,78.25
2018-09-19T21:37:23.454Z,78.53
2018-09-19T21:39:51.687Z,78.15
2018-09-19T21:42:19.833Z,77.76
2018-09-19T21:44:48.089Z,79.18
2018-09-19T21:47:16.225Z,79.20
2018-09-19T21:49:44.438Z,78.81
2018-09-19T21:52:12.597Z,78.86
2018-09-19T21:54:40.780Z,79.04
2018-09-19T21:57:09.130Z,79.65
2018-09-19T21:59:37.318Z,79.46
2018-09-19T22:02:05.476Z,80.38
2018-09-19T22:04:33.649Z,80.49
2018-09-19T22:07:01.830Z,80.29
2018-09-19T22:09:30.331Z,80.10
2018-09-19T22:11:58.968Z,81.00
2018-09-19T22:14:27.732Z,81.54
2018-09-19T22:16:56.224Z,80.37
2018-09-19T22:19:24.764Z,81.32
2018-09-19T22:21:53.240Z,81.36
2018-09-19T22:24:21.664Z,80.56
2018-09-19T22:26:50.145Z,81.14
2018-09-19T22:29:18.468Z,81.68
2018-09-19T22:31:46.889Z,81.88
2018-09-19T22:34:15.747Z,81.69
2018-09-19T22:36:44.333Z,81.59
2018-09-19T22:39:12.777Z,82.25
2018-09-19T22:41:41.270Z,82.46
2018-09-19T22:44:09.724Z,83.01
2018-09-19T22:46:38.143Z,82.74
2018-09-19T22:49:06.614Z,81.91
2018-09-19T22:51:34.947Z,82.25
2018-09-19T22:54:03.634Z,82.69
2018-09-19T22:56:31.953Z,83.46
2018-09-19T22:59:00.272Z,83.25
2018-09-19T23:01:28.620Z,83.20
2018-09-19T23:03:57.119Z,83.82
2018-09-19T23:06:25.529Z,83.65
2018-09-19T23:08:53.942Z,83.04
2018-09-19T23:11:22.422Z,83.24
2018-09-19T23:13:50.883Z,83.74
2018-09-19T23:16:19.326Z,83.29
2018-09-19T23:18:47.780Z,83.72
2018-09-19T23:21:16.101Z,83.84
2018-09-19T23:23:44.618Z,84.45
2018-09-19T23:26:13.043Z,84.49
2018-09-19T23:28:41.665Z,84.67
2018-09-19T23:31:10.202Z,84.42
2018-09-19T23:33:38.646Z,84.97
2018-09-19T23:36:07.137Z,85.29
2018-09-19T23:38:35.645Z,84.88
2018-09-19T23:41:04.035Z,84.85
2018-09-19T23:43:32.349Z,84.85
2018-09-19T23:46:00.793Z,84.56
2018-09-19T23:48:29.185Z,84.89
2018-09-19T23:50:57.523Z,85.35
2018-09-19T23:53:25.922Z,85.39
2018-09-19T23:55:54.327Z,86.19
2018-09-19T23:58:22.657Z,86.62
